Latest Weather Observations for Tin Can Bay (Defence)

IDQ60901

Issued at 8:41 pm EST Saturday 23 February 2019 (issued every 10 minutes, with the page automatically refreshed every 10 minutes)

About weather observations | Map of Brisbane area stations | Latest observations for Brisbane area | Other Formats
Station Details ID: 140010 Name: TIN CAN BAY (DEFENCE) Lat: -25.94 Lon: 152.96 Height: 31.26 m
Data from the previous 72 hours. | See also: Recent months at Tin Can Bay (Defence)
Date/Time
EST
Temp
°C
App
Temp
°C
Dew
Point
°C
Rel
Hum
%
Delta-T
°C
Wind Press
QNH
hPa
Press
MSL
hPa
Rain since
9am
mm
Dir  Spd
km/h
Gust
km/h
Spd
kts
Gust
kts
23/08:30pm 24.6 23.3 15.8 58 5.3 SSE 17 24 9 13 - - 0.0
23/08:00pm 24.9 22.9 15.0 54 5.9 SE 19 32 10 17 - - 0.0
23/07:30pm 25.0 22.8 14.8 53 6.1 SSE 20 35 11 19 - - 0.0
23/07:00pm 25.0 23.3 14.8 53 6.1 SSE 17 30 9 16 - - 0.0
23/06:30pm 25.1 23.4 15.7 56 5.7 SE 19 35 10 19 - - 0.0
23/06:00pm 25.7 22.5 15.4 53 6.2 SSE 26 46 14 25 - - 0.0
23/05:30pm 26.4 23.4 15.8 52 6.5 SE 26 43 14 23 - - 0.0
23/05:00pm 26.8 25.3 16.7 54 6.3 SE 20 33 11 18 - - 0.0
23/04:30pm 27.4 25.3 16.1 50 7.0 SE 22 39 12 21 - - 0.0
23/04:02pm 27.4 24.1 16.1 50 7.0 SE 28 46 15 25 - - 0.0
23/04:00pm 27.7 24.9 16.3 49 7.1 SE 26 44 14 24 - - 0.0
23/03:30pm 27.8 26.1 17.3 52 6.6 SE 22 41 12 22 - - 0.0
23/03:03pm 28.1 25.1 16.7 50 7.1 SE 28 50 15 27 - - 0.0
23/03:00pm 28.1 25.3 16.4 49 7.3 SE 26 44 14 24 - - 0.0
23/02:30pm 28.6 26.1 16.2 47 7.7 SSE 24 43 13 23 - - 0.0
23/02:25pm 28.5 25.2 16.1 47 7.7 SSE 28 46 15 25 - - 0.0
23/02:00pm 28.9 26.7 16.8 48 7.6 SSE 24 50 13 27 - - 0.0
23/01:41pm 29.1 25.4 14.9 42 8.6 SSE 28 46 15 25 - - 0.0
23/01:30pm 29.2 25.5 13.8 39 9.2 SE 26 46 14 25 - - 0.0
23/01:00pm 29.0 26.4 15.9 45 8.1 SSE 24 39 13 21 - - 0.0
23/12:35pm 28.7 25.1 15.2 43 8.2 SE 28 46 15 25 - - 0.0
23/12:30pm 28.9 25.6 15.1 43 8.4 SE 26 46 14 25 - - 0.0
23/12:07pm 28.6 25.0 15.2 44 8.2 SSE 28 56 15 30 - - 0.0
23/12:00pm 28.6 25.3 14.1 41 8.7 SSE 24 56 13 30 - - 0.0
23/11:30am 27.8 24.1 15.1 46 7.7 SSE 28 44 15 24 - - 0.0
23/11:00am 27.1 24.4 15.5 49 7.1 SSE 24 44 13 24 - - 0.0
23/10:30am 26.2 24.5 16.2 54 6.1 SSE 20 39 11 21 - - 0.0
23/10:00am 26.6 24.8 15.6 50 6.7 SSE 19 37 10 20 - - 0.0
23/09:30am 26.4 24.5 15.8 52 6.5 S 20 33 11 18 - - 0.0
23/09:00am 25.7 23.3 15.4 53 6.2 SSE 22 39 12 21 - - 0.0
23/08:30am 25.1 23.2 15.1 53 6.0 SSE 19 37 10 20 - - 0.0
23/08:00am 24.4 22.5 15.3 57 5.5 SSE 19 33 10 18 - - 0.0
23/07:30am 23.8 22.2 15.0 57 5.3 S 17 28 9 15 - - 0.0
23/07:00am 22.9 22.7 14.7 60 4.9 S 9 17 5 9 - - 0.0
23/06:30am 21.9 22.0 14.5 63 4.3 SSW 7 13 4 7 - - 0.0
23/06:00am 21.5 21.2 14.4 64 4.2 S 9 19 5 10 - - 0.0
23/05:30am 21.5 20.8 14.2 63 4.3 S 11 20 6 11 - - 0.0
23/05:00am 21.5 21.0 13.9 62 4.4 S 9 17 5 9 - - 0.0
23/04:30am 21.3 21.1 13.5 61 4.5 S 7 13 4 7 - - 0.0
23/04:00am 21.4 21.0 13.1 59 4.7 S 7 13 4 7 - - 0.0
23/03:30am 21.3 21.0 12.7 58 4.9 SSW 6 13 3 7 - - 0.0
23/03:00am 21.1 20.7 12.3 57 5.0 SSW 6 11 3 6 - - 0.0
23/02:30am 21.1 21.1 12.3 57 5.0 WSW 4 7 2 4 - - 0.0
23/02:00am 21.9 21.4 12.2 54 5.5 S 6 11 3 6 - - 0.0
23/01:30am 22.2 21.5 11.9 52 5.8 SSW 7 15 4 8 - - 0.0
23/01:00am 22.1 21.5 11.8 52 5.8 SSW 6 9 3 5 - - 0.0
23/12:30am 22.7 22.1 11.7 49 6.2 SSW 6 11 3 6 - - 0.0
23/12:00am 23.2 22.0 11.6 48 6.5 S 9 20 5 11 - - 0.0
 
Date/Time
EST
Temp
°C
App
Temp
°C
Dew
Point
°C
Rel
Hum
%
Delta-T
°C
Wind Press
QNH
hPa
Press
MSL
hPa
Rain since
9am
mm
Dir  Spd
km/h
Gust
km/h
Spd
kts
Gust
kts
22/11:30pm 23.5 22.0 11.9 48 6.6 S 11 28 6 15 - - 0.0
22/11:00pm 23.5 22.4 13.1 52 6.0 SSW 11 19 6 10 - - 0.0
22/10:30pm 23.6 23.4 14.6 57 5.3 S 9 17 5 9 - - 0.0
22/10:00pm 24.1 23.9 14.8 56 5.5 S 9 19 5 10 - - 0.0
22/09:30pm 24.6 23.5 15.2 55 5.7 SSE 15 30 8 16 - - 0.0
22/09:00pm 24.9 24.4 15.8 57 5.5 SSE 13 22 7 12 - - 0.0
22/08:30pm 25.2 24.3 15.8 56 5.7 SSE 15 28 8 15 - - 0.0
22/08:00pm 25.4 24.5 16.8 59 5.3 SSE 17 30 9 16 - - 0.0
22/07:30pm 25.6 24.8 17.0 59 5.3 SSE 17 32 9 17 - - 0.0
22/07:00pm 25.8 24.9 16.9 58 5.5 SSE 17 28 9 15 - - 0.0
22/06:30pm 26.2 25.4 16.2 54 6.1 SSE 15 28 8 15 - - 0.0
22/06:00pm 26.7 25.9 16.0 52 6.6 SSE 15 24 8 13 - - 0.0
22/05:30pm 27.4 26.0 17.0 53 6.5 SSE 20 37 11 20 - - 0.0
22/05:00pm 28.2 26.2 17.4 52 6.8 SE 24 41 13 22 - - 0.0
22/04:30pm 28.8 27.1 17.3 49 7.3 SSE 22 33 12 18 - - 0.0
22/04:00pm 29.0 27.3 18.1 51 7.0 SSE 24 44 13 24 - - 0.0
22/03:30pm 28.9 25.8 17.4 49 7.3 SSE 30 50 16 27 - - 0.0
22/03:00pm 29.6 27.1 18.1 50 7.4 SSE 28 50 15 27 - - 0.0
22/02:36pm 29.5 26.3 17.3 47 7.7 SE 30 50 16 27 - - 0.0
22/02:30pm 29.5 26.2 17.0 47 7.9 SSE 30 44 16 24 - - 0.0
22/02:08pm 29.3 26.2 16.5 46 8.0 SE 28 48 15 26 - - 0.0
22/02:00pm 29.9 27.7 16.0 43 8.6 SE 22 43 12 23 - - 0.0
22/01:37pm 29.7 26.9 17.2 47 7.9 SE 28 48 15 26 - - 0.0
22/01:30pm 29.6 27.7 16.8 46 8.0 SE 22 48 12 26 - - 0.0
22/01:00pm 29.5 25.5 16.3 45 8.2 SSE 32 50 17 27 - - 0.0
22/12:30pm 29.4 26.3 17.6 49 7.5 SSE 30 52 16 28 - - 0.0
22/12:00pm 29.4 25.5 15.5 43 8.6 SSE 30 56 16 30 - - 0.0
22/11:30am 29.7 25.2 16.5 45 8.3 SSE 35 63 19 34 - - 0.0
22/11:00am 29.0 24.5 15.5 44 8.3 SSE 33 63 18 34 - - 0.0
22/10:30am 27.4 24.2 18.7 59 5.6 SSE 33 56 18 30 - - 0.0
22/10:00am 27.9 25.4 18.0 55 6.3 SSE 28 50 15 27 - - 0.0
22/09:30am 27.8 24.9 17.9 54 6.3 SSE 30 57 16 31 - - 0.0
22/09:00am 26.8 24.6 18.6 60 5.2 SSE 28 61 15 33 - - 0.2
22/08:30am 25.8 24.1 19.7 69 3.9 SSE 28 50 15 27 - - 0.2
22/08:27am 25.5 23.7 19.6 70 3.8 SSE 28 50 15 27 - - 0.2
22/08:00am 25.0 23.7 19.8 73 3.4 SSE 26 43 14 23 - - 0.2
22/07:30am 24.7 23.8 19.8 74 3.2 S 24 37 13 20 - - 0.2
22/07:00am 24.2 23.3 19.9 77 2.8 SSE 24 41 13 22 - - 0.2
22/06:30am 23.9 24.1 20.2 80 2.4 S 19 32 10 17 - - 0.2
22/06:00am 23.5 23.6 20.4 83 2.0 SSE 20 37 11 20 - - 0.2
22/05:30am 23.1 24.1 21.0 88 1.4 S 17 30 9 16 - - 0.0
22/05:00am 24.4 25.1 20.5 79 2.5 S 17 32 9 17 - - 0.0
22/04:30am 24.6 25.2 20.3 77 2.8 SSE 17 35 9 19 - - 0.0
22/04:00am 24.6 25.4 20.7 79 2.6 S 17 28 9 15 - - 0.0
22/03:30am 24.5 25.5 21.0 81 2.3 S 17 41 9 22 - - 0.0
22/03:00am 25.7 26.5 20.7 74 3.3 SSE 17 32 9 17 - - 0.0
22/02:30am 25.7 25.4 20.3 72 3.5 SSE 22 37 12 20 - - 0.0
22/02:00am 25.7 26.9 20.7 74 3.3 SSE 15 28 8 15 - - 0.0
22/01:30am 25.9 24.9 20.5 72 3.5 SSE 26 39 14 21 - - 0.0
22/01:00am 25.8 26.0 20.6 73 3.4 SSE 20 41 11 22 - - 0.0
22/12:30am 25.9 26.2 20.7 73 3.4 SSE 20 35 11 19 - - 0.0
22/12:00am 25.9 26.3 20.7 73 3.4 SSE 19 33 10 18 - - 0.0
 
Date/Time
EST
Temp
°C
App
Temp
°C
Dew
Point
°C
Rel
Hum
%
Delta-T
°C
Wind Press
QNH
hPa
Press
MSL
hPa
Rain since
9am
mm
Dir  Spd
km/h
Gust
km/h
Spd
kts
Gust
kts
21/11:30pm 25.9 26.9 21.1 75 3.2 SSE 17 30 9 16 - - 0.0
21/11:00pm 25.9 25.9 20.9 74 3.3 SSE 22 37 12 20 - - 0.0
21/10:30pm 26.0 25.9 20.8 73 3.4 SSE 22 41 12 22 - - 0.0
21/10:00pm 25.9 26.5 21.1 75 3.2 SSE 19 37 10 20 - - 0.0
21/09:30pm 26.2 25.7 20.8 72 3.6 SSE 24 39 13 21 - - 0.0
21/09:00pm 26.1 26.5 20.9 73 3.4 SSE 20 37 11 20 - - 0.0
21/08:30pm 26.1 26.2 20.4 71 3.7 SSE 20 46 11 25 - - 0.0
21/08:00pm 26.2 26.5 20.5 71 3.7 SSE 19 33 10 18 - - 0.0
21/07:30pm 26.4 25.9 20.7 71 3.8 SE 24 41 13 22 - - 0.0
21/07:00pm 26.4 26.0 20.9 72 3.6 SSE 24 43 13 23 - - 0.0
21/06:30pm 26.6 27.5 20.9 71 3.8 SSE 17 33 9 18 - - 0.0
21/06:00pm 27.0 27.3 20.8 69 4.1 SE 20 43 11 23 - - 0.0
21/05:30pm 27.4 27.6 20.5 66 4.5 SSE 20 33 11 18 - - 0.0
21/05:19pm 27.8 26.2 20.1 63 5.0 SSE 28 52 15 28 - - 0.0
21/05:00pm 27.8 27.5 20.4 64 4.9 SE 22 43 12 23 - - 0.0
21/04:32pm 28.6 27.0 20.1 60 5.6 SE 28 48 15 26 - - 0.0
21/04:30pm 28.8 27.7 20.3 60 5.6 SE 26 44 14 24 - - 0.0
21/04:00pm 29.1 26.5 19.4 55 6.3 SE 32 59 17 32 - - 0.0
21/03:33pm 29.2 27.3 20.1 58 6.0 SSE 30 50 16 27 - - 0.0
21/03:30pm 29.0 27.0 19.9 58 6.0 SSE 30 44 16 24 - - 0.0
21/03:00pm 29.2 27.6 20.1 58 6.0 SSE 28 46 15 25 - - 0.0
21/02:56pm 29.2 27.6 20.1 58 6.0 SSE 28 48 15 26 - - 0.0
21/02:30pm 29.1 28.9 21.3 62 5.2 SE 24 44 13 24 - - 0.0
21/02:00pm 29.3 29.6 21.5 63 5.2 SSE 22 41 12 22 - - 0.0
21/01:30pm 29.8 29.0 20.9 59 5.9 SSE 26 43 14 23 - - 0.0
21/01:02pm 29.4 28.3 21.1 61 5.5 SE 28 46 15 25 - - 0.0
21/01:00pm 29.3 28.6 21.0 61 5.5 SE 26 46 14 25 - - 0.0
21/12:30pm 29.0 29.0 21.7 64 4.9 SSE 24 37 13 20 - - 0.0
21/12:00pm 29.7 29.9 21.4 61 5.6 SE 22 37 12 20 - - 0.0
21/11:30am 29.6 30.2 21.3 61 5.6 SSE 20 35 11 19 - - 0.0
21/11:00am 29.5 30.3 21.7 63 5.2 SE 20 33 11 18 - - 0.0
21/10:30am 29.8 30.3 21.2 60 5.8 SE 20 41 11 22 - - 0.0
21/10:00am 29.3 29.6 21.5 63 5.2 SSE 22 39 12 21 - - 0.0
21/09:30am 28.1 29.5 21.9 69 4.2 SSE 17 30 9 16 - - 0.0
21/09:00am 28.7 30.3 21.5 65 4.8 SSE 15 32 8 17 - - 0.0
21/08:30am 28.0 29.2 21.5 67 4.3 SSE 17 28 9 15 - - 0.0
21/08:00am 28.5 30.4 22.0 68 4.4 SSE 15 30 8 16 - - 0.0
21/07:30am 27.3 30.1 22.3 74 3.4 SE 11 22 6 12 - - 0.0
21/07:00am 26.6 29.0 22.2 77 3.0 SSE 13 19 7 10 - - 0.0
21/06:30am 25.5 28.7 22.4 83 2.1 SE 9 15 5 8 - - 0.0
21/06:00am 24.6 28.8 22.5 88 1.4 SSE 4 6 2 3 - - 0.0
21/05:30am 24.6 29.2 22.5 88 1.4 SSE 2 6 1 3 - - 0.0
21/05:00am 24.7 28.9 22.4 87 1.5 SSE 4 6 2 3 - - 0.0
21/04:30am 25.0 28.9 22.5 86 1.7 S 6 9 3 5 - - 0.0
21/04:00am 24.9 28.8 22.6 87 1.5 SSE 6 9 3 5 - - 0.0
21/03:30am 25.1 29.1 22.8 87 1.6 S 6 11 3 6 - - 0.0
21/03:00am 25.2 29.3 22.9 87 1.6 S 6 9 3 5 - - 0.0
21/02:30am 25.5 29.2 22.6 84 2.0 SSE 7 13 4 7 - - 0.0
21/02:00am 25.6 29.0 22.7 84 2.0 SSE 9 15 5 8 - - 0.0
21/01:30am 25.7 29.2 22.8 84 2.0 SSE 9 15 5 8 - - 0.0
21/01:00am 25.8 29.3 22.9 84 2.0 S 9 15 5 8 - - 0.0
21/12:30am 25.7 29.6 22.6 83 2.1 SSE 6 9 3 5 - - 0.0
21/12:00am 25.9 29.6 22.6 82 2.2 SSE 7 11 4 6 - - 0.0
 
Date/Time
EST
Temp
°C
App
Temp
°C
Dew
Point
°C
Rel
Hum
%
Delta-T
°C
Wind Press
QNH
hPa
Press
MSL
hPa
Rain since
9am
mm
Dir  Spd
km/h
Gust
km/h
Spd
kts
Gust
kts
20/11:30pm 25.9 29.4 22.8 83 2.1 SE 9 19 5 10 - - 0.0
20/11:00pm 25.4 29.9 22.9 86 1.7 SSE 4 6 2 3 - - 0.0
20/10:30pm 25.2 29.3 22.9 87 1.6 SE 6 9 3 5 - - 0.0
20/10:00pm 24.7 29.4 22.6 88 1.4 S 2 4 1 2 - - 0.0
20/09:30pm 24.7 29.3 22.4 87 1.5 S 2 6 1 3 - - 0.0
20/09:00pm 25.2 29.2 22.7 86 1.7 SSE 6 11 3 6 - - 0.0

Latest Capital City Observations: Canberra | Sydney | Melbourne | Brisbane | Adelaide | Perth | Hobart | Darwin

Other formats

Comma delimited format used in spreadsheet applications
http://www.bom.gov.au/fwo/IDQ60901/IDQ60901.94420.axf

JavaScript Object Notation format (JSON) in row-major order
http://www.bom.gov.au/fwo/IDQ60901/IDQ60901.94420.json

Data quality

Most of these data are generated automatically and are frequently updated. Quality checks on data are not normally performed. It is possible for incorrect values to appear. Refer to information at About Latest Weather Observations and please check the disclaimer before using these data.